Time;durP1;ratioP1;P1;durP2;ratioP2;P2;SDS_P1;SDS_P2;PMS_P1;PMS_P2;Temp;Humidity;BMP_temperature;BMP_pressure;BME280_temperature;BME280_humidity;BME280_pressure;Samples;Min_cycle;Max_cycle;Signal;HPM_P1;HPM_P2
2023/04/21 00:01:54;;;;;;;;;;;;;;;7.21;87.12;101502.72;5060799;28;1103;-75
2023/04/21 00:04:19;;;;;;;;;;;;;;;7.19;88.21;101504.56;5062128;28;1074;-75
2023/04/21 00:06:44;;;;;;;;;;;;;;;7.16;88.76;101505.56;5062210;28;986;-75
2023/04/21 00:09:10;;;;;;;;;;;;;;;7.15;90.90;101500.50;5063601;28;1080;-75
2023/04/21 00:11:35;;;;;;;;;;;;;;;7.12;90.00;101495.53;5059166;28;1155;-76
2023/04/21 00:14:00;;;;;;;;;;;;;;;7.10;87.97;101480.09;5063878;28;1073;-77
2023/04/21 00:16:25;;;;;;;;;;;;;;;7.08;90.09;101465.66;5063764;28;1886;-76
2023/04/21 00:18:50;;;;;;;;;;;;;;;7.06;88.72;101467.50;5058602;28;1113;-76
2023/04/21 00:21:16;;;;;;;;;;;;;;;7.05;87.38;101465.81;5061668;28;1323;-76
2023/04/21 00:23:41;;;;;;;;;;;;;;;7.03;89.37;101458.16;5058359;28;1002;-76
2023/04/21 00:26:07;;;;;;;;;;;;;;;7.04;89.71;101448.66;5062671;28;1345;-76
2023/04/21 00:28:32;;;;;;;;;;;;;;;7.02;88.88;101445.38;5055646;28;1156;-77
2023/04/21 00:30:57;;;;;;;;;;;;;;;7.00;90.04;101448.03;5063296;28;1091;-76
2023/04/21 00:33:22;;;;;;;;;;;;;;;7.01;87.40;101436.78;5057158;28;1060;-77
2023/04/21 00:35:48;;;;;;;;;;;;;;;7.00;89.03;101436.91;5054120;28;1052;-77
2023/04/21 00:38:13;;;;;;;;;;;;;;;7.02;88.28;101430.72;5058130;28;1957;-77
2023/04/21 00:40:38;;;;;;;;;;;;;;;7.03;87.90;101427.22;5061645;28;1073;-77
2023/04/21 00:43:06;;;;;;;;;;;;;;;7.04;89.70;101428.03;5061600;28;1076;-77
2023/04/21 00:45:32;;;;;;;;;;;;;;;7.06;88.83;101428.81;5055352;28;1024;-76
2023/04/21 00:47:58;;;;;;;;;;;;;;;7.05;89.60;101425.38;5061272;28;1564;-77
2023/04/21 00:50:23;;;;;;;;;;;;;;;7.05;89.58;101429.69;5062193;28;1302;-77
2023/04/21 00:52:48;;;;;;;;;;;;;;;7.08;91.59;101432.13;5063326;28;1241;-77
2023/04/21 00:55:14;;;;;;;;;;;;;;;7.06;90.54;101431.38;5065213;28;1100;-76
2023/04/21 00:57:40;;;;;;;;;;;;;;;7.05;91.89;101434.84;5056348;28;1893;-76
2023/04/21 01:00:06;;;;;;;;;;;;;;;7.03;91.27;101427.22;5064680;28;1083;-77
2023/04/21 01:02:33;;;;;;;;;;;;;;;7.04;91.18;101433.19;5065947;28;1118;-76
2023/04/21 01:04:59;;;;;;;;;;;;;;;7.04;91.35;101428.03;5060646;28;1170;-77
2023/04/21 01:07:24;;;;;;;;;;;;;;;7.02;92.52;101424.72;5059293;28;1224;-78
2023/04/21 01:09:49;;;;;;;;;;;;;;;7.02;91.48;101417.00;5065110;28;1300;-77
2023/04/21 01:12:15;;;;;;;;;;;;;;;7.04;91.49;101417.72;5064970;28;1068;-76
2023/04/21 01:14:40;;;;;;;;;;;;;;;7.04;89.94;101412.56;5063034;28;1048;-77
2023/04/21 01:17:06;;;;;;;;;;;;;;;7.06;91.04;101410.75;5064754;28;1977;-76
2023/04/21 01:19:35;;;;;;;;;;;;;;;7.02;91.46;101411.84;5054718;28;1114;-76
2023/04/21 01:22:02;;;;;;;;;;;;;;;7.04;91.06;101407.41;5061397;28;1037;-76
2023/04/21 01:24:54;;;;;;;;;;;;;;;7.03;90.90;101401.44;5065657;28;1037;-76
2023/04/21 01:27:19;;;;;;;;;;;;;;;7.03;91.50;101410.91;5066125;28;1232;-76
2023/04/21 01:29:45;;;;;;;;;;;;;;;7.04;93.37;101412.56;5063086;28;1120;-76
2023/04/21 01:32:15;;;;;;;;;;;;;;;7.03;92.27;101395.44;5073417;28;1205;-76
2023/04/21 01:34:41;;;;;;;;;;;;;;;7.01;93.22;101398.13;5057299;28;1117;-76
2023/04/21 01:37:07;;;;;;;;;;;;;;;7.03;91.90;101395.44;5061700;28;1969;-76
2023/04/21 01:39:32;;;;;;;;;;;;;;;7.04;92.84;101397.09;5063240;28;1264;-76
2023/04/21 01:41:58;;;;;;;;;;;;;;;7.03;91.44;101400.59;5067583;28;1129;-76
2023/04/21 01:44:24;;;;;;;;;;;;;;;7.01;94.19;101402.44;5059751;28;1099;-77
2023/04/21 01:46:50;;;;;;;;;;;;;;;7.02;94.45;101409.25;5061879;28;1041;-76
2023/04/21 01:49:15;;;;;;;;;;;;;;;6.99;92.04;101402.50;5061913;28;1128;-76
2023/04/21 01:51:41;;;;;;;;;;;;;;;6.99;92.58;101404.25;5061197;28;1076;-76
2023/04/21 01:54:06;;;;;;;;;;;;;;;6.98;93.45;101393.13;5058425;28;1036;-78
2023/04/21 01:56:31;;;;;;;;;;;;;;;6.98;92.73;101397.44;5064032;28;1906;-76
2023/04/21 01:58:56;;;;;;;;;;;;;;;6.99;92.60;101394.78;5068633;28;1255;-76
2023/04/21 02:01:21;;;;;;;;;;;;;;;7.02;92.89;101388.63;5064664;28;1138;-77
2023/04/21 02:03:47;;;;;;;;;;;;;;;7.00;92.89;101385.31;5064757;28;1061;-75
2023/04/21 02:06:12;;;;;;;;;;;;;;;7.02;93.93;101383.47;5065210;28;1080;-75
2023/04/21 02:08:38;;;;;;;;;;;;;;;7.02;92.75;101370.56;5062669;28;1209;-76
2023/04/21 02:11:03;;;;;;;;;;;;;;;7.03;92.75;101379.97;5066682;28;1156;-75
2023/04/21 02:13:28;;;;;;;;;;;;;;;7.03;92.90;101375.63;5058588;28;1143;-76
2023/04/21 02:15:53;;;;;;;;;;;;;;;7.04;93.53;101371.31;5068335;28;1110;-76
2023/04/21 02:18:19;;;;;;;;;;;;;;;7.05;92.94;101370.38;5066771;28;1977;-76
2023/04/21 02:20:44;;;;;;;;;;;;;;;7.04;92.50;101372.13;5064732;28;1170;-76
2023/04/21 02:23:09;;;;;;;;;;;;;;;7.05;93.89;101363.47;5073224;28;1152;-76
2023/04/21 02:25:34;;;;;;;;;;;;;;;7.05;92.48;101360.06;5061467;28;1131;-76
2023/04/21 02:28:00;;;;;;;;;;;;;;;7.04;93.54;101350.66;5057483;28;1544;-77
2023/04/21 02:30:25;;;;;;;;;;;;;;;7.05;94.07;101347.16;5061467;28;1119;-76
2023/04/21 02:32:50;;;;;;;;;;;;;;;7.03;93.51;101351.59;5066141;28;1316;-76
2023/04/21 02:35:16;;;;;;;;;;;;;;;7.03;94.99;101374.81;5059419;28;1134;-76
2023/04/21 02:37:41;;;;;;;;;;;;;;;7.04;93.15;101355.81;5066576;28;1929;-76
2023/04/21 02:40:07;;;;;;;;;;;;;;;7.05;94.08;101362.63;5061974;28;1129;-77
2023/04/21 02:42:33;;;;;;;;;;;;;;;7.05;93.61;101357.47;5057635;28;1244;-76
2023/04/21 02:44:58;;;;;;;;;;;;;;;7.07;93.66;101341.00;5060543;28;1204;-77
2023/04/21 02:47:24;;;;;;;;;;;;;;;7.07;94.66;101340.19;5058022;28;1298;-77
2023/04/21 02:49:50;;;;;;;;;;;;;;;7.07;95.23;101335.84;5062895;28;1144;-76
2023/04/21 02:52:15;;;;;;;;;;;;;;;7.06;96.36;101333.38;5062321;28;1052;-77
2023/04/21 02:54:40;;;;;;;;;;;;;;;7.06;95.26;101338.53;5073870;28;1123;-76
2023/04/21 02:57:05;;;;;;;;;;;;;;;7.04;94.20;101335.19;5063514;28;1996;-76
2023/04/21 02:59:31;;;;;;;;;;;;;;;7.02;95.63;101337.88;5066099;28;1104;-76
2023/04/21 03:01:56;;;;;;;;;;;;;;;7.03;96.27;101336.13;5065235;28;1103;-77
2023/04/21 03:04:23;;;;;;;;;;;;;;;7.04;96.73;101341.19;5058939;28;1192;-78
2023/04/21 03:06:48;;;;;;;;;;;;;;;7.04;95.64;101335.19;5066310;28;1136;-76
2023/04/21 03:09:13;;;;;;;;;;;;;;;7.04;95.87;101335.19;5058818;28;1074;-77
2023/04/21 03:11:38;;;;;;;;;;;;;;;7.03;95.16;101323.22;5066419;28;1136;-77
2023/04/21 03:14:04;;;;;;;;;;;;;;;7.04;95.43;101332.63;5066608;28;1326;-77
2023/04/21 03:16:29;;;;;;;;;;;;;;;7.04;95.63;101330.03;5061583;28;1992;-76
2023/04/21 03:18:54;;;;;;;;;;;;;;;7.05;94.97;101334.25;5066183;28;1035;-76
2023/04/21 03:21:19;;;;;;;;;;;;;;;7.05;95.66;101326.53;5057557;28;1168;-76
2023/04/21 03:23:44;;;;;;;;;;;;;;;7.06;95.43;101323.88;5058904;28;1085;-76
2023/04/21 03:26:10;;;;;;;;;;;;;;;7.07;95.38;101319.56;5054945;28;1334;-77
2023/04/21 03:28:35;;;;;;;;;;;;;;;7.08;95.65;101316.03;5063061;28;1325;-76
2023/04/21 03:31:01;;;;;;;;;;;;;;;7.08;95.84;101321.22;5062079;28;1016;-77
2023/04/21 03:33:26;;;;;;;;;;;;;;;7.08;95.63;101313.47;5051811;28;1448;-76
2023/04/21 03:35:51;;;;;;;;;;;;;;;7.08;96.87;101310.88;5053616;28;1147;-76
2023/04/21 03:38:16;;;;;;;;;;;;;;;7.10;95.27;101320.19;5057502;28;1890;-78
2023/04/21 03:40:41;;;;;;;;;;;;;;;7.10;95.74;101311.63;5063333;28;1170;-76
2023/04/21 03:43:07;;;;;;;;;;;;;;;7.09;95.92;101312.53;5059705;28;1079;-76
2023/04/21 03:45:34;;;;;;;;;;;;;;;7.08;97.15;101313.47;5060825;28;1201;-76
2023/04/21 03:47:59;;;;;;;;;;;;;;;7.12;95.60;101314.97;5059269;28;893;-77
2023/04/21 03:50:24;;;;;;;;;;;;;;;7.13;95.21;101314.03;5057440;28;1115;-77
2023/04/21 03:52:49;;;;;;;;;;;;;;;7.14;94.74;101310.53;5063912;28;1041;-77
2023/04/21 03:55:15;;;;;;;;;;;;;;;7.13;96.47;101304.53;5059197;28;972;-77
2023/04/21 03:57:40;;;;;;;;;;;;;;;7.13;97.61;101303.72;5059060;28;1957;-77
2023/04/21 04:00:08;;;;;;;;;;;;;;;7.11;97.81;101301.22;5064543;28;986;-77
2023/04/21 04:02:34;;;;;;;;;;;;;;;7.09;96.32;101312.53;5061258;28;1011;-77
2023/04/21 04:04:59;;;;;;;;;;;;;;;7.09;96.17;101307.38;5058532;28;1241;-77
2023/04/21 04:07:25;;;;;;;;;;;;;;;7.08;95.99;101306.56;5062764;28;906;-76
2023/04/21 04:09:50;;;;;;;;;;;;;;;7.08;96.28;101303.16;5061209;28;1233;-78
2023/04/21 04:12:15;;;;;;;;;;;;;;;7.05;97.54;101300.75;5064773;28;1527;-78
2023/04/21 04:14:40;;;;;;;;;;;;;;;7.06;96.31;101302.41;5067084;28;1315;-78
2023/04/21 04:17:06;;;;;;;;;;;;;;;7.05;97.11;101305.91;5071858;28;1901;-78
2023/04/21 04:19:31;;;;;;;;;;;;;;;7.03;96.77;101297.44;5064527;28;1099;-78
2023/04/21 04:21:57;;;;;;;;;;;;;;;7.01;97.10;101297.53;5063822;28;1163;-78
2023/04/21 04:24:22;;;;;;;;;;;;;;;7.02;97.53;101300.94;5064404;28;1162;-78
2023/04/21 04:26:47;;;;;;;;;;;;;;;7.00;97.99;101302.78;5065692;28;1349;-78
2023/04/21 04:29:15;;;;;;;;;;;;;;;6.99;98.44;101311.41;5059876;28;1204;-78
2023/04/21 04:31:40;;;;;;;;;;;;;;;7.00;97.67;101297.63;5055021;28;1187;-78
2023/04/21 04:34:05;;;;;;;;;;;;;;;6.94;97.97;101314.28;5065076;28;1048;-77
2023/04/21 04:36:31;;;;;;;;;;;;;;;6.93;98.03;101305.69;5079033;28;1910;-78
2023/04/21 04:38:57;;;;;;;;;;;;;;;6.92;98.19;101301.47;5057925;28;1024;-77
2023/04/21 04:41:23;;;;;;;;;;;;;;;6.90;98.20;101305.91;5062888;28;1016;-77
2023/04/21 04:43:48;;;;;;;;;;;;;;;6.90;98.50;101311.06;5063745;28;929;-77
2023/04/21 04:46:13;;;;;;;;;;;;;;;6.88;97.64;101300.00;5057243;28;973;-78
2023/04/21 04:48:39;;;;;;;;;;;;;;;6.89;98.63;101301.66;5065664;28;1064;-78
2023/04/21 04:51:04;;;;;;;;;;;;;;;6.90;98.71;101294.75;5064809;28;1036;-78
2023/04/21 04:53:30;;;;;;;;;;;;;;;6.91;97.77;101304.97;5072404;28;1166;-78
2023/04/21 04:55:57;;;;;;;;;;;;;;;6.90;99.55;101298.16;5060272;28;1381;-78
2023/04/21 04:58:22;;;;;;;;;;;;;;;6.96;98.57;101311.63;5070493;28;1894;-78
2023/04/21 05:00:48;;;;;;;;;;;;;;;6.92;99.10;101311.78;5074816;28;2060;-77
2023/04/21 05:03:13;;;;;;;;;;;;;;;6.95;98.38;101307.38;5069456;28;1400;-77
2023/04/21 05:05:38;;;;;;;;;;;;;;;6.97;98.16;101308.94;5066480;28;1087;-78
2023/04/21 05:08:03;;;;;;;;;;;;;;;6.93;100.00;101308.28;5050491;28;1149;-78
2023/04/21 05:10:29;;;;;;;;;;;;;;;6.93;100.00;101318.59;5063719;28;1099;-78
2023/04/21 05:12:54;;;;;;;;;;;;;;;6.95;100.00;101317.69;5061850;28;1089;-78
2023/04/21 05:15:21;;;;;;;;;;;;;;;6.99;99.04;101316.56;5060740;28;1065;-78
2023/04/21 05:17:46;;;;;;;;;;;;;;;6.96;100.00;101316.78;5057930;28;1901;-78
2023/04/21 05:20:11;;;;;;;;;;;;;;;6.95;99.83;101315.94;5059619;28;985;-78
2023/04/21 05:22:37;;;;;;;;;;;;;;;6.99;99.65;101321.72;5062509;28;1088;-78
2023/04/21 05:25:02;;;;;;;;;;;;;;;6.98;99.38;101320.09;5056146;28;1207;-78
2023/04/21 05:27:28;;;;;;;;;;;;;;;7.00;100.00;101323.41;5078708;28;1252;-78
2023/04/21 05:29:54;;;;;;;;;;;;;;;7.00;100.00;101321.66;5063356;28;1079;-78
2023/04/21 05:32:19;;;;;;;;;;;;;;;7.01;100.00;101322.50;5056598;28;1331;-77
2023/04/21 05:34:44;;;;;;;;;;;;;;;6.99;100.00;101326.91;5068717;28;1325;-77
2023/04/21 05:37:11;;;;;;;;;;;;;;;7.01;100.00;101337.97;5064261;28;1921;-78
2023/04/21 05:39:36;;;;;;;;;;;;;;;7.03;100.00;101333.53;5056288;28;1054;-78
2023/04/21 05:42:01;;;;;;;;;;;;;;;7.05;100.00;101347.16;5064475;28;1142;-78
2023/04/21 05:44:26;;;;;;;;;;;;;;;7.09;99.81;101343.50;5061512;28;1260;-77
2023/04/21 05:46:51;;;;;;;;;;;;;;;7.08;100.00;101352.16;5069181;28;1569;-77
2023/04/21 05:49:17;;;;;;;;;;;;;;;7.08;100.00;101344.41;5061691;28;1129;-77
2023/04/21 05:51:42;;;;;;;;;;;;;;;7.11;100.00;101351.97;5066432;28;1135;-77
2023/04/21 05:54:07;;;;;;;;;;;;;;;7.13;100.00;101357.88;5064930;28;975;-77
2023/04/21 05:56:32;;;;;;;;;;;;;;;7.13;100.00;101350.16;5074598;28;1910;-77
2023/04/21 05:58:57;;;;;;;;;;;;;;;7.16;100.00;101360.25;5062900;28;1097;-78
2023/04/21 06:01:23;;;;;;;;;;;;;;;7.17;100.00;101356.78;5061887;28;997;-78
2023/04/21 06:03:48;;;;;;;;;;;;;;;7.19;100.00;101355.75;5065322;28;1107;-77
2023/04/21 06:06:14;;;;;;;;;;;;;;;7.19;100.00;101354.94;5074290;28;1288;-78
2023/04/21 06:08:39;;;;;;;;;;;;;;;7.21;100.00;101347.94;5060494;28;1071;-76
2023/04/21 06:11:04;;;;;;;;;;;;;;;7.21;100.00;101345.34;5063322;28;1013;-77
2023/04/21 06:13:30;;;;;;;;;;;;;;;7.23;100.00;101345.28;5063513;28;1265;-78
2023/04/21 06:15:55;;;;;;;;;;;;;;;7.30;100.00;101342.22;5074432;28;1194;-77
2023/04/21 06:18:20;;;;;;;;;;;;;;;7.31;100.00;101341.31;5063352;28;1898;-78
2023/04/21 06:20:49;;;;;;;;;;;;;;;7.39;100.00;101341.66;5062320;28;1135;-77
2023/04/21 06:23:15;;;;;;;;;;;;;;;7.45;100.00;101336.16;5062013;28;1064;-77
2023/04/21 06:25:40;;;;;;;;;;;;;;;7.53;100.00;101345.19;5059783;28;1307;-80
2023/04/21 06:28:05;;;;;;;;;;;;;;;7.61;100.00;101345.53;5054791;28;1068;-77
2023/04/21 06:30:30;;;;;;;;;;;;;;;7.68;100.00;101341.66;5052850;28;1170;-77
2023/04/21 06:32:56;;;;;;;;;;;;;;;7.75;100.00;101339.56;5060187;28;1186;-77
2023/04/21 06:35:21;;;;;;;;;;;;;;;7.80;100.00;101346.09;5067425;28;1010;-77
2023/04/21 06:37:46;;;;;;;;;;;;;;;7.85;100.00;101333.69;5061148;28;1953;-77
2023/04/21 06:40:14;;;;;;;;;;;;;;;7.91;100.00;101337.66;5062785;28;1094;-77
2023/04/21 06:42:39;;;;;;;;;;;;;;;7.96;100.00;101336.44;5059962;28;1132;-77
2023/04/21 06:45:06;;;;;;;;;;;;;;;8.04;100.00;101340.31;5063849;28;1168;-78
2023/04/21 06:47:31;;;;;;;;;;;;;;;8.10;100.00;101332.19;5061725;28;1126;-80
2023/04/21 06:49:56;;;;;;;;;;;;;;;8.10;100.00;101327.84;5059214;28;1264;-78
2023/04/21 06:52:21;;;;;;;;;;;;;;;8.17;100.00;101333.44;5065792;28;1156;-77
2023/04/21 06:54:46;;;;;;;;;;;;;;;8.23;100.00;101333.88;5071708;28;1626;-77
2023/04/21 06:57:14;;;;;;;;;;;;;;;8.31;100.00;101324.81;5064893;28;1898;-78
2023/04/21 06:59:39;;;;;;;;;;;;;;;8.38;100.00;101334.72;5061780;28;2085;-78
2023/04/21 07:02:05;;;;;;;;;;;;;;;8.44;100.00;101329.16;5062534;28;977;-78
2023/04/21 07:04:31;;;;;;;;;;;;;;;8.51;100.00;101332.97;5067571;28;1216;-77
2023/04/21 07:06:56;;;;;;;;;;;;;;;8.57;100.00;101336.94;5063701;28;1185;-77
2023/04/21 07:09:21;;;;;;;;;;;;;;;8.64;100.00;101329.59;5072720;28;1175;-78
2023/04/21 07:11:46;;;;;;;;;;;;;;;8.67;100.00;101338.00;5056932;28;1076;-77
2023/04/21 07:14:12;;;;;;;;;;;;;;;8.74;100.00;101333.25;5063056;28;1107;-78
2023/04/21 07:16:37;;;;;;;;;;;;;;;8.78;100.00;101337.28;5057455;28;1894;-77
2023/04/21 07:19:02;;;;;;;;;;;;;;;8.83;100.00;101335.22;5065865;28;1103;-79
2023/04/21 07:21:29;;;;;;;;;;;;;;;8.88;100.00;101340.91;5053049;28;1043;-77
2023/04/21 07:23:55;;;;;;;;;;;;;;;8.96;100.00;101333.47;5061174;28;1157;-78
2023/04/21 07:26:20;;;;;;;;;;;;;;;8.98;99.82;101341.97;5060874;28;990;-77
2023/04/21 07:28:45;;;;;;;;;;;;;;;8.98;99.69;101341.97;5069971;28;1385;-77
2023/04/21 07:31:10;;;;;;;;;;;;;;;9.03;99.37;101344.25;5060807;28;1140;-77
2023/04/21 07:33:35;;;;;;;;;;;;;;;9.04;99.16;101354.47;5059802;28;1012;-77
2023/04/21 07:36:01;;;;;;;;;;;;;;;9.06;98.82;101346.66;5066062;28;1226;-77
2023/04/21 07:38:26;;;;;;;;;;;;;;;9.12;99.22;101342.78;5070825;28;1963;-77
2023/04/21 07:40:51;;;;;;;;;;;;;;;9.16;98.61;101333.88;5055301;28;1009;-77
2023/04/21 07:43:18;;;;;;;;;;;;;;;9.19;98.49;101334.53;5061510;28;1132;-77
2023/04/21 07:45:44;;;;;;;;;;;;;;;9.25;98.41;101338.47;5065142;28;1210;-77
2023/04/21 07:48:09;;;;;;;;;;;;;;;9.28;97.70;101327.88;5059810;28;1145;-77
2023/04/21 07:50:35;;;;;;;;;;;;;;;9.30;97.71;101326.03;5056470;28;1260;-76
2023/04/21 07:53:00;;;;;;;;;;;;;;;9.34;97.70;101327.47;5055042;28;1178;-77
2023/04/21 07:55:26;;;;;;;;;;;;;;;9.37;97.29;101337.63;5060760;28;1316;-77
2023/04/21 07:57:51;;;;;;;;;;;;;;;9.42;96.62;101345.91;5069574;28;1886;-77
2023/04/21 08:00:16;;;;;;;;;;;;;;;9.46;96.43;101342.19;5062093;28;1261;-77
2023/04/21 08:02:42;;;;;;;;;;;;;;;9.48;96.03;101345.47;5062982;28;1045;-77
2023/04/21 08:05:07;;;;;;;;;;;;;;;9.47;95.87;101338.66;5064451;28;1226;-78
2023/04/21 08:07:32;;;;;;;;;;;;;;;9.50;95.48;101333.25;5068334;28;1131;-78
2023/04/21 08:09:59;;;;;;;;;;;;;;;9.56;95.53;101332.81;5055447;28;1014;-77
2023/04/21 08:12:24;;;;;;;;;;;;;;;9.65;96.29;101331.38;5060664;28;1083;-77
2023/04/21 08:14:49;;;;;;;;;;;;;;;9.73;95.67;101323.06;5065205;28;1060;-77
2023/04/21 08:17:15;;;;;;;;;;;;;;;9.79;95.24;101328.63;5059752;28;1969;-77
2023/04/21 08:19:40;;;;;;;;;;;;;;;9.78;94.01;101321.81;5055959;28;1016;-77
2023/04/21 08:22:05;;;;;;;;;;;;;;;9.87;94.29;101317.75;5063341;28;1158;-77
2023/04/21 08:24:31;;;;;;;;;;;;;;;9.94;94.45;101321.56;5066696;28;1305;-77
2023/04/21 08:26:56;;;;;;;;;;;;;;;10.01;93.67;101327.94;5063908;28;1096;-78
2023/04/21 08:29:22;;;;;;;;;;;;;;;10.09;94.27;101336.03;5046984;28;1028;-77
2023/04/21 08:31:47;;;;;;;;;;;;;;;10.08;93.76;101331.75;5064798;28;967;-76
2023/04/21 08:34:12;;;;;;;;;;;;;;;10.13;92.39;101330.59;5058697;28;1441;-77
2023/04/21 08:36:38;;;;;;;;;;;;;;;10.16;91.54;101331.22;5065586;28;1898;-77
2023/04/21 08:39:03;;;;;;;;;;;;;;;10.21;92.44;101323.13;5068794;28;1107;-77
2023/04/21 08:41:28;;;;;;;;;;;;;;;10.27;92.44;101317.53;5068779;28;1004;-77
2023/04/21 08:43:54;;;;;;;;;;;;;;;10.31;91.85;101318.94;5067573;28;1083;-76
2023/04/21 08:46:19;;;;;;;;;;;;;;;10.37;92.32;101314.13;5061826;28;1012;-77
2023/04/21 08:48:45;;;;;;;;;;;;;;;10.42;92.23;101313.78;5068871;28;1072;-77
2023/04/21 08:51:13;;;;;;;;;;;;;;;10.54;92.29;101320.66;5065699;28;1317;-77
2023/04/21 08:53:40;;;;;;;;;;;;;;;10.60;91.84;101319.41;5068289;28;2037;-77
2023/04/21 08:56:05;;;;;;;;;;;;;;;10.68;91.49;101321.44;5077407;28;1186;-76
2023/04/21 08:58:30;;;;;;;;;;;;;;;10.74;90.55;101313.22;5068760;28;1889;-76
2023/04/21 09:00:57;;;;;;;;;;;;;;;10.76;90.31;101316.50;5060962;28;1049;-76
2023/04/21 09:03:23;;;;;;;;;;;;;;;10.82;90.72;101308.25;5062837;28;1246;-76
2023/04/21 09:05:59;;;;;;;;;;;;;;;10.89;91.34;101306.84;5073425;28;1239;-76
2023/04/21 09:08:26;;;;;;;;;;;;;;;10.98;90.54;101313.94;5061178;28;1121;-76
2023/04/21 09:10:52;;;;;;;;;;;;;;;11.05;90.36;101315.13;5059153;28;1083;-76
2023/04/21 09:13:18;;;;;;;;;;;;;;;11.12;90.68;101305.94;5062266;28;1081;-76
2023/04/21 09:15:47;;;;;;;;;;;;;;;11.20;90.62;101312.34;5068399;28;1071;-76
2023/04/21 09:18:13;;;;;;;;;;;;;;;11.26;89.88;101301.47;5059300;28;1898;-77
2023/04/21 09:20:39;;;;;;;;;;;;;;;11.32;89.80;101301.00;5060224;28;1087;-76
2023/04/21 09:23:05;;;;;;;;;;;;;;;11.37;89.80;101311.88;5060077;28;1130;-76
2023/04/21 09:25:31;;;;;;;;;;;;;;;11.44;87.70;101310.44;5068686;28;882;-77
2023/04/21 09:27:56;;;;;;;;;;;;;;;11.48;87.80;101311.88;5067891;28;994;-76
2023/04/21 09:30:22;;;;;;;;;;;;;;;11.48;85.83;101309.25;5063202;28;1103;-76
2023/04/21 09:32:48;;;;;;;;;;;;;;;11.56;89.02;101312.09;5059290;28;997;-76
2023/04/21 09:35:13;;;;;;;;;;;;;;;11.56;86.74;101309.47;5064234;28;1137;-76
2023/04/21 09:37:41;;;;;;;;;;;;;;;11.61;87.09;101306.53;5060589;28;1976;-78
2023/04/21 09:40:07;;;;;;;;;;;;;;;11.65;86.41;101303.56;5065439;28;1060;-76
2023/04/21 09:42:34;;;;;;;;;;;;;;;11.74;87.08;101306.38;5059620;28;1210;-77
2023/04/21 09:44:59;;;;;;;;;;;;;;;11.72;85.61;101303.09;5062870;28;939;-77
2023/04/21 09:47:27;;;;;;;;;;;;;;;11.72;85.54;101303.09;5058229;28;1141;-77
2023/04/21 09:49:53;;;;;;;;;;;;;;;11.71;85.45;101307.47;5066187;28;1163;-76
2023/04/21 09:52:19;;;;;;;;;;;;;;;11.72;84.65;101308.28;5068662;28;1042;-76
2023/04/21 09:54:48;;;;;;;;;;;;;;;11.74;86.67;101302.00;5072179;28;1342;-76
2023/04/21 09:57:18;;;;;;;;;;;;;;;11.76;85.15;101301.91;5066556;28;1875;-76
2023/04/21 09:59:45;;;;;;;;;;;;;;;11.77;85.05;101301.78;5055631;28;1247;-76
2023/04/21 10:02:10;;;;;;;;;;;;;;;11.79;85.33;101307.69;5064095;28;1020;-77
2023/04/21 10:04:36;;;;;;;;;;;;;;;11.78;84.29;101302.59;5075006;28;1610;-76
2023/04/21 10:07:02;;;;;;;;;;;;;;;11.77;84.64;101301.78;5066151;28;1154;-75
2023/04/21 10:09:33;;;;;;;;;;;;;;;11.79;85.04;101293.84;5061296;28;1005;-75
2023/04/21 10:12:00;;;;;;;;;;;;;;;11.74;83.73;101293.41;5068266;28;1354;-76
2023/04/21 10:14:25;;;;;;;;;;;;;;;11.79;84.20;101296.47;5068480;28;1133;-75
2023/04/21 10:17:17;;;;;;;;;;;;;;;11.77;83.69;101287.97;5067625;28;1967;-74
2023/04/21 10:19:49;;;;;;;;;;;;;;;11.83;84.32;101290.13;5054243;28;1068;-74
2023/04/21 10:22:25;;;;;;;;;;;;;;;11.86;84.04;101289.84;5068204;28;1073;-75
2023/04/21 10:24:53;;;;;;;;;;;;;;;11.90;83.14;101280.88;5078068;28;1636;-74
2023/04/21 10:27:29;;;;;;;;;;;;;;;11.94;82.49;101277.09;5062507;28;1251;-74
2023/04/21 10:29:56;;;;;;;;;;;;;;;11.97;82.65;101287.22;5073821;28;1219;-75
2023/04/21 10:32:40;;;;;;;;;;;;;;;12.02;82.96;101268.66;5067713;28;1150;-75
2023/04/21 10:35:12;;;;;;;;;;;;;;;12.08;82.39;101274.19;5060409;28;1046;-74
2023/04/21 10:37:39;;;;;;;;;;;;;;;12.20;82.86;101273.19;5065810;28;1965;-75
2023/04/21 10:40:08;;;;;;;;;;;;;;;12.11;81.05;101273.97;5071753;28;1173;-75
2023/04/21 10:42:35;;;;;;;;;;;;;;;12.19;82.04;101276.75;5057652;28;1105;-74
2023/04/21 10:45:04;;;;;;;;;;;;;;;12.33;81.78;101274.78;5063654;28;1183;-74
2023/04/21 10:47:35;;;;;;;;;;;;;;;12.35;81.72;101270.31;5061836;28;1061;-77
2023/04/21 10:50:09;;;;;;;;;;;;;;;12.38;81.47;101264.84;5059705;28;1358;-75
2023/04/21 10:52:35;;;;;;;;;;;;;;;12.43;80.75;101262.69;5061979;28;960;-75
2023/04/21 10:55:00;;;;;;;;;;;;;;;12.60;81.55;101249.09;5060017;28;1076;-75
2023/04/21 10:57:30;;;;;;;;;;;;;;;12.68;80.92;101256.28;5063773;28;1886;-76
2023/04/21 10:59:55;;;;;;;;;;;;;;;12.72;81.22;101253.28;5059433;28;1123;-75
2023/04/21 11:02:20;;;;;;;;;;;;;;;12.81;80.36;101250.88;5063224;28;1196;-76
2023/04/21 11:04:49;;;;;;;;;;;;;;;12.87;79.31;101250.34;5062419;28;1167;-75
2023/04/21 11:07:33;;;;;;;;;;;;;;;12.84;79.06;101234.97;5058768;28;1069;-75
2023/04/21 11:09:58;;;;;;;;;;;;;;;12.96;80.71;101239.16;5061091;28;1083;-75
2023/04/21 11:12:25;;;;;;;;;;;;;;;13.07;79.00;101236.44;5057751;28;1018;-74
2023/04/21 11:14:51;;;;;;;;;;;;;;;13.22;78.06;101229.97;5065658;28;1012;-75
2023/04/21 11:17:17;;;;;;;;;;;;;;;13.03;79.12;101229.88;5056855;28;1973;-76
2023/04/21 11:19:47;;;;;;;;;;;;;;;13.01;79.09;101216.16;5074499;28;1380;-75
2023/04/21 11:22:12;;;;;;;;;;;;;;;13.03;79.51;101224.66;5055103;28;980;-75
2023/04/21 11:24:42;;;;;;;;;;;;;;;13.07;78.23;101226.03;5060142;28;1057;-75
2023/04/21 11:27:07;;;;;;;;;;;;;;;13.18;78.25;101212.91;5051063;28;1125;-76
2023/04/21 11:29:33;;;;;;;;;;;;;;;13.35;77.01;101205.47;5059396;28;1169;-74
2023/04/21 11:31:58;;;;;;;;;;;;;;;13.40;79.52;101200.66;5067145;28;1083;-76
2023/04/21 11:34:24;;;;;;;;;;;;;;;13.44;76.21;101196.84;5064018;28;1000;-74
2023/04/21 11:36:50;;;;;;;;;;;;;;;13.66;75.51;101201.81;5059574;28;1890;-75
2023/04/21 11:39:16;;;;;;;;;;;;;;;13.57;76.74;101186.16;5061326;28;1184;-76
2023/04/21 11:41:43;;;;;;;;;;;;;;;13.73;76.36;101182.06;5058630;28;1032;-76
2023/04/21 11:44:11;;;;;;;;;;;;;;;13.82;76.95;101183.84;5061921;28;1093;-75
2023/04/21 11:46:43;;;;;;;;;;;;;;;13.79;76.76;101186.72;5070881;28;1346;-78
2023/04/21 11:49:11;;;;;;;;;;;;;;;13.70;75.84;101187.53;5056083;28;1059;-74
2023/04/21 11:51:38;;;;;;;;;;;;;;;13.71;75.71;101178.78;5060605;28;1081;-74
2023/04/21 11:54:04;;;;;;;;;;;;;;;13.61;75.31;101177.13;5064595;28;1168;-76
2023/04/21 11:56:29;;;;;;;;;;;;;;;13.64;75.70;101167.22;5065694;28;1087;-79
2023/04/21 11:58:55;;;;;;;;;;;;;;;13.66;76.66;101167.94;5066105;28;1898;-76
2023/04/21 12:01:20;;;;;;;;;;;;;;;13.80;76.61;101167.50;5064221;28;1205;-75
2023/04/21 12:03:53;;;;;;;;;;;;;;;13.91;76.50;101173.56;5068703;28;1557;-75
2023/04/21 12:06:21;;;;;;;;;;;;;;;13.89;74.43;101176.31;5065365;28;1076;-76
2023/04/21 12:08:46;;;;;;;;;;;;;;;13.77;74.83;101172.19;5054027;28;1309;-75
2023/04/21 12:11:14;;;;;;;;;;;;;;;13.64;74.79;101162.00;5058876;28;1132;-75
2023/04/21 12:13:40;;;;;;;;;;;;;;;13.62;75.85;101161.34;5057350;28;1086;-75
2023/04/21 12:16:05;;;;;;;;;;;;;;;13.78;76.70;101158.19;5060530;28;1075;-74
2023/04/21 12:18:32;;;;;;;;;;;;;;;13.95;76.51;101148.84;5061038;28;1902;-71
2023/04/21 12:21:00;;;;;;;;;;;;;;;13.85;75.89;101154.06;5055911;28;1095;-74
2023/04/21 12:23:25;;;;;;;;;;;;;;;13.79;76.19;101160.66;5052387;28;1139;-75
2023/04/21 12:25:51;;;;;;;;;;;;;;;13.76;75.93;101160.94;5055136;28;1056;-75
2023/04/21 12:28:17;;;;;;;;;;;;;;;13.77;74.73;101159.97;5062290;28;1073;-73
2023/04/21 12:30:42;;;;;;;;;;;;;;;13.84;75.67;101152.44;5064914;28;1067;-77
2023/04/21 12:33:08;;;;;;;;;;;;;;;13.82;75.06;101149.97;5056931;28;979;-77
2023/04/21 12:35:34;;;;;;;;;;;;;;;13.81;74.60;101140.47;5060832;28;1135;-74
2023/04/21 12:37:59;;;;;;;;;;;;;;;13.77;75.16;101146.94;5062976;28;1905;-74
2023/04/21 12:40:25;;;;;;;;;;;;;;;13.79;74.79;101138.97;5061517;28;1080;-74
2023/04/21 12:42:51;;;;;;;;;;;;;;;13.73;74.31;101129.91;5062605;28;1009;-74
2023/04/21 12:45:16;;;;;;;;;;;;;;;13.77;75.84;101131.31;5066646;28;1085;-75
2023/04/21 12:47:41;;;;;;;;;;;;;;;13.77;75.34;101120.88;5059220;28;1120;-74